Nantucket, MA

4:19 PM EST on December 02, 2016 (GMT -0500)
Wauwinet | | Change Station

Elev 20 ft 41.33 °N, 69.99 °W | Updated 18 seconds ago

Scattered Clouds
Scattered Clouds
47.3 °F
Feels Like 44 °F
N
7.0
Wind Variable Wind from WNW
Gusts 17.0 mph

Today
High -- | Low -- °F
--% Chance of Precip.
Yesterday
High -- | Low -- °F
Precip. -- in
Pressure 29.77 in
Visibility 10.0 miles
Clouds Scattered Clouds 4600 ft
Windchill 44 °F
Dew Point 38 °F
Humidity 71%
Rainfall 0.00 in
Snow Depth Not available.
6:47 AM 4:11 PM
Waxing Crescent, 10% visible
METAR KACK 022053Z 28007KT 10SM SCT046 08/M01 A2977 RMK AO2 SLP081 T00831006 53001
Pressure 29.77 in
Visibility 10.0 miles
Clouds Scattered Clouds 4600 ft
Windchill 44 °F
Dew Point 38 °F
Humidity 71%
Rainfall 0.00 in
Snow Depth Not available.
6:47 AM 4:11 PM
Waxing Crescent, 10% visible
METAR KACK 022053Z 28007KT 10SM SCT046 08/M01 A2977 RMK AO2 SLP081 T00831006 53001

10-Day Weather Forecast

Almanac

Astronomy

Dec. 02, 2016 Rise Set
Actual Time
Civil Twilight
Nautical Twilight
Astronomical Twilight
Moon
Length of Visible Light
Length of Day
Tomorrow will be .
, % of the Moon is Illuminated

Today's Extremes

State Highs State Lows

Community

WunderPhotos

Upload Photos

1,955,369 photos uploaded!

WunderBlog® & News

Nearby

Air Quality

  Air Quality AQ Index Pollutant
Not available.

Snow Depth

Station Depth Elevation

Earthquake Activity

City Distance Mag. Time & Date
Minimum magnitude displayed is 2.5.

Coastal Water Temperatures

Place Temperature

Stations

Nearby Weather Stations

Station Location Temp. Windchill Dew Point Humidity Wind Precip. Elev Updated Type
                   

Watches & Warnings

There are currently no watches in effect.